createdAt,value
2018-12-18T00:01:39.073Z,24.25
2018-12-18T00:04:09.414Z,24.90
2018-12-18T00:06:37.878Z,26.20
2018-12-18T00:09:08.297Z,25.32
2018-12-18T00:11:36.933Z,23.38
2018-12-18T00:14:05.429Z,24.23
2018-12-18T00:16:33.871Z,33.78
2018-12-18T00:19:03.346Z,31.85
2018-12-18T00:21:32.156Z,35.55
2018-12-18T00:24:00.602Z,31.33
2018-12-18T00:26:29.005Z,29.55
2018-12-18T00:28:57.678Z,28.55
2018-12-18T00:31:26.183Z,28.65
2018-12-18T00:33:54.805Z,30.23
2018-12-18T00:36:23.930Z,38.85
2018-12-18T00:38:52.582Z,32.38
2018-12-18T00:41:21.179Z,41.83
2018-12-18T00:43:50.165Z,33.20
2018-12-18T00:46:18.598Z,31.60
2018-12-18T00:48:47.006Z,47.67
2018-12-18T00:51:15.418Z,43.48
2018-12-18T00:53:44.381Z,32.90
2018-12-18T00:56:13.267Z,44.40
2018-12-18T00:58:41.762Z,56.37
2018-12-18T01:01:10.605Z,58.52
2018-12-18T01:03:39.651Z,57.27
2018-12-18T01:06:08.735Z,56.92
2018-12-18T01:08:37.525Z,60.20
2018-12-18T01:11:05.900Z,55.30
2018-12-18T01:13:34.580Z,81.65
2018-12-18T01:16:02.956Z,66.30
2018-12-18T01:18:31.443Z,51.40
2018-12-18T01:21:00.416Z,76.60
2018-12-18T01:23:29.441Z,57.80
2018-12-18T01:25:58.095Z,82.12
2018-12-18T01:28:26.622Z,78.90
2018-12-18T01:30:55.042Z,60.67
2018-12-18T01:33:23.529Z,79.85
2018-12-18T01:35:51.986Z,62.90
2018-12-18T01:38:20.986Z,82.33
2018-12-18T01:40:49.504Z,83.40
2018-12-18T01:43:18.209Z,57.98
2018-12-18T01:45:48.806Z,58.25
2018-12-18T01:48:17.453Z,50.67
2018-12-18T01:50:45.958Z,56.37
2018-12-18T01:53:14.415Z,53.25
2018-12-18T01:55:43.221Z,53.10
2018-12-18T01:58:12.421Z,59.18
2018-12-18T02:00:40.983Z,47.60
2018-12-18T02:03:10.234Z,56.28
2018-12-18T02:05:38.663Z,53.00
2018-12-18T02:08:08.061Z,48.75
2018-12-18T02:10:38.849Z,78.02
2018-12-18T02:13:07.263Z,52.60
2018-12-18T02:15:35.851Z,58.05
2018-12-18T02:18:04.596Z,66.82
2018-12-18T02:20:33.294Z,58.83
2018-12-18T02:23:02.400Z,53.08
2018-12-18T02:25:31.802Z,50.63
2018-12-18T02:28:07.357Z,50.67
2018-12-18T02:30:36.374Z,71.67
2018-12-18T02:33:04.852Z,55.40
2018-12-18T02:35:33.293Z,60.85
2018-12-18T02:38:02.156Z,53.63
2018-12-18T02:40:30.910Z,59.70
2018-12-18T02:42:59.349Z,56.45
2018-12-18T02:45:28.087Z,59.60
2018-12-18T02:47:56.759Z,70.95
2018-12-18T02:50:25.212Z,54.10
2018-12-18T02:52:53.661Z,50.60
2018-12-18T02:55:22.122Z,62.05
2018-12-18T02:57:50.837Z,53.17
2018-12-18T03:00:19.682Z,49.95
2018-12-18T03:02:48.535Z,51.83
2018-12-18T03:05:17.304Z,57.25
2018-12-18T03:07:46.081Z,58.65
2018-12-18T03:10:14.876Z,55.98
2018-12-18T03:12:43.394Z,48.52
2018-12-18T03:15:11.795Z,45.55
2018-12-18T03:17:40.354Z,47.50
2018-12-18T03:20:09.166Z,43.17
2018-12-18T03:22:37.960Z,43.45
2018-12-18T03:25:06.705Z,40.10
2018-12-18T03:27:35.841Z,62.65
2018-12-18T03:30:05.155Z,51.53
2018-12-18T03:32:38.970Z,44.63
2018-12-18T03:35:07.547Z,41.45
2018-12-18T03:37:35.952Z,49.95
2018-12-18T03:40:05.929Z,51.73
2018-12-18T03:42:34.798Z,42.05
2018-12-18T03:45:03.376Z,48.00
2018-12-18T03:47:32.559Z,38.92
2018-12-18T03:50:01.219Z,40.12
2018-12-18T03:52:29.843Z,40.63
2018-12-18T03:54:59.141Z,46.42
2018-12-18T03:57:28.166Z,43.68
2018-12-18T03:59:56.687Z,41.13
2018-12-18T04:02:25.636Z,40.92
2018-12-18T04:04:54.110Z,41.33
2018-12-18T04:07:22.509Z,39.78
2018-12-18T04:09:51.705Z,35.98
2018-12-18T04:12:23.065Z,45.95
2018-12-18T04:14:52.030Z,46.77
2018-12-18T04:17:20.488Z,37.80
2018-12-18T04:19:49.364Z,35.98
2018-12-18T04:22:18.056Z,32.45
2018-12-18T04:24:46.698Z,39.63
2018-12-18T04:27:15.811Z,40.45
2018-12-18T04:29:44.549Z,35.33
2018-12-18T04:32:13.551Z,35.35
2018-12-18T04:34:43.184Z,36.98
2018-12-18T04:37:12.078Z,40.12
2018-12-18T04:39:40.661Z,33.53
2018-12-18T04:42:09.286Z,34.10
2018-12-18T04:44:37.697Z,36.42
2018-12-18T04:47:06.281Z,40.50
2018-12-18T04:49:35.108Z,46.80
2018-12-18T04:52:03.728Z,39.42
2018-12-18T04:54:32.497Z,42.55
2018-12-18T04:57:00.993Z,37.58
2018-12-18T04:59:29.660Z,39.80
2018-12-18T05:01:58.581Z,43.78
2018-12-18T05:04:27.200Z,38.30
2018-12-18T05:06:55.715Z,40.92
2018-12-18T05:09:24.908Z,42.88
2018-12-18T05:11:53.496Z,38.10
2018-12-18T05:14:22.179Z,36.65
2018-12-18T05:16:50.790Z,40.78
2018-12-18T05:19:19.660Z,34.45
2018-12-18T05:21:47.994Z,49.40
2018-12-18T05:24:16.750Z,44.58
2018-12-18T05:26:45.649Z,38.40
2018-12-18T05:29:14.956Z,32.80
2018-12-18T05:31:44.619Z,38.60
2018-12-18T05:34:13.155Z,41.23
2018-12-18T05:36:41.639Z,33.50
2018-12-18T05:39:10.066Z,32.70
2018-12-18T05:41:38.474Z,36.35
2018-12-18T05:44:06.929Z,36.25
2018-12-18T05:46:35.680Z,32.67
2018-12-18T05:49:04.161Z,30.43
2018-12-18T05:51:32.581Z,31.42
2018-12-18T05:54:01.100Z,32.78
2018-12-18T05:56:29.532Z,31.50
2018-12-18T05:58:58.631Z,31.48
2018-12-18T06:01:27.129Z,28.15
2018-12-18T06:03:56.976Z,26.05
2018-12-18T06:06:25.988Z,33.80
2018-12-18T06:08:54.399Z,37.30
2018-12-18T06:11:23.208Z,29.30
2018-12-18T06:13:51.815Z,32.20
2018-12-18T06:16:20.243Z,39.85
2018-12-18T06:18:49.609Z,29.18
2018-12-18T06:21:18.051Z,28.32
2018-12-18T06:23:47.066Z,27.65
2018-12-18T06:26:16.153Z,32.60
2018-12-18T06:28:44.935Z,29.07
2018-12-18T06:31:13.776Z,28.12
2018-12-18T06:33:42.186Z,37.93
2018-12-18T06:36:10.536Z,28.92
2018-12-18T06:38:38.923Z,27.80
2018-12-18T06:41:07.379Z,28.62
2018-12-18T06:43:36.197Z,24.72
2018-12-18T06:46:05.849Z,34.92
2018-12-18T06:48:34.324Z,33.48
2018-12-18T06:51:02.716Z,32.23
2018-12-18T06:53:32.197Z,29.70
2018-12-18T06:56:00.676Z,30.40
2018-12-18T06:58:29.412Z,24.52
2018-12-18T07:00:59.047Z,31.37
2018-12-18T07:03:27.859Z,30.90
2018-12-18T07:05:56.643Z,28.10
2018-12-18T07:08:25.473Z,23.40
2018-12-18T07:10:53.865Z,21.60
2018-12-18T07:13:22.239Z,25.43
2018-12-18T07:15:50.744Z,27.93
2018-12-18T07:18:20.749Z,34.95
2018-12-18T07:20:49.136Z,30.97
2018-12-18T07:23:17.512Z,27.13
2018-12-18T07:25:46.370Z,27.52
2018-12-18T07:28:15.103Z,22.00
2018-12-18T07:30:43.926Z,22.15
2018-12-18T07:33:12.368Z,23.27
2018-12-18T07:35:40.853Z,24.07
2018-12-18T07:38:09.463Z,27.15
2018-12-18T07:40:37.901Z,30.50
2018-12-18T07:43:06.320Z,24.87
2018-12-18T07:45:35.554Z,26.73
2018-12-18T07:48:04.166Z,23.65
2018-12-18T07:50:32.606Z,22.98
2018-12-18T07:53:01.520Z,18.67
2018-12-18T07:55:29.897Z,21.52
2018-12-18T07:57:58.320Z,27.50
2018-12-18T08:00:27.874Z,21.20
2018-12-18T08:02:56.635Z,19.37
2018-12-18T08:05:29.894Z,20.75
2018-12-18T08:07:56.497Z,23.75
2018-12-18T08:10:25.107Z,21.57
2018-12-18T08:12:53.728Z,16.48
2018-12-18T08:15:22.171Z,20.32
2018-12-18T08:17:50.527Z,16.73
2018-12-18T08:20:18.926Z,16.85
2018-12-18T08:22:47.390Z,21.25
2018-12-18T08:25:15.793Z,22.05
2018-12-18T08:27:44.815Z,21.20
2018-12-18T08:30:13.601Z,18.73
2018-12-18T08:32:42.226Z,19.85
2018-12-18T08:35:10.875Z,22.75
2018-12-18T08:37:39.409Z,14.83
2018-12-18T08:40:08.653Z,22.25
2018-12-18T08:42:37.065Z,13.70
2018-12-18T08:45:08.186Z,12.33
2018-12-18T08:47:36.925Z,25.30
2018-12-18T08:50:07.217Z,18.67
2018-12-18T08:52:35.662Z,15.50
2018-12-18T08:55:05.692Z,18.85
2018-12-18T08:57:34.373Z,15.53
2018-12-18T09:00:03.474Z,15.18
2018-12-18T09:02:31.956Z,17.07
2018-12-18T09:05:01.234Z,16.45
2018-12-18T09:07:29.833Z,15.05
2018-12-18T09:09:59.513Z,15.90
2018-12-18T09:12:27.965Z,12.85
2018-12-18T09:14:57.511Z,13.28
2018-12-18T09:17:31.954Z,16.48
2018-12-18T09:20:00.706Z,19.02
2018-12-18T09:22:29.061Z,18.82
2018-12-18T09:24:57.499Z,15.00
2018-12-18T09:27:40.212Z,15.40
2018-12-18T09:30:11.320Z,14.55
2018-12-18T09:32:40.155Z,16.75
2018-12-18T09:35:08.472Z,13.55
2018-12-18T09:37:37.274Z,13.38
2018-12-18T09:40:08.046Z,15.55
2018-12-18T09:42:41.749Z,11.05
2018-12-18T09:45:10.346Z,14.28
2018-12-18T09:47:39.061Z,13.18
2018-12-18T09:50:08.746Z,14.65
2018-12-18T09:52:37.290Z,13.00
2018-12-18T09:55:07.997Z,17.80
2018-12-18T09:57:41.840Z,13.45
2018-12-18T10:00:10.440Z,16.50
2018-12-18T10:02:38.856Z,9.90
2018-12-18T10:05:07.373Z,15.18
2018-12-18T10:07:36.870Z,13.98
2018-12-18T10:10:07.171Z,13.10
2018-12-18T10:12:40.929Z,19.20
2018-12-18T10:15:09.492Z,16.85
2018-12-18T10:17:37.994Z,11.40
2018-12-18T10:20:06.503Z,14.68
2018-12-18T10:22:34.885Z,10.03
2018-12-18T10:25:03.463Z,10.28
2018-12-18T10:27:32.725Z,10.88
2018-12-18T10:30:01.258Z,15.95
2018-12-18T10:32:29.614Z,13.35
2018-12-18T10:34:58.144Z,11.88
2018-12-18T10:37:26.569Z,19.85
2018-12-18T10:39:56.183Z,18.10
2018-12-18T10:42:24.980Z,10.25
2018-12-18T10:44:53.499Z,15.55
2018-12-18T10:47:22.368Z,11.83
2018-12-18T10:49:50.759Z,18.42
2018-12-18T10:52:19.102Z,11.30
2018-12-18T10:54:48.304Z,14.38
2018-12-18T10:57:16.904Z,12.65
2018-12-18T10:59:45.364Z,11.55
2018-12-18T11:02:14.152Z,14.60
2018-12-18T11:04:42.614Z,9.10
2018-12-18T11:07:11.361Z,11.63
2018-12-18T11:09:39.751Z,16.97
2018-12-18T11:12:08.103Z,11.05
2018-12-18T11:14:36.492Z,15.83
2018-12-18T11:17:04.950Z,11.80
2018-12-18T11:19:33.414Z,11.83
2018-12-18T11:22:01.826Z,16.20
2018-12-18T11:24:30.575Z,14.43
2018-12-18T11:26:59.109Z,11.12
2018-12-18T11:29:27.777Z,13.78
2018-12-18T11:31:56.437Z,10.90
2018-12-18T11:34:24.882Z,14.83
2018-12-18T11:36:53.844Z,10.58
2018-12-18T11:39:22.726Z,12.63
2018-12-18T11:41:51.676Z,12.28
2018-12-18T11:44:20.042Z,10.60
2018-12-18T11:46:48.469Z,10.88
2018-12-18T11:49:16.815Z,14.00
2018-12-18T11:51:45.393Z,14.03
2018-12-18T11:54:14.587Z,11.15
2018-12-18T11:56:43.002Z,9.68
2018-12-18T11:59:11.476Z,8.83
2018-12-18T12:01:40.338Z,7.53
2018-12-18T12:04:08.802Z,14.65
2018-12-18T12:06:37.366Z,7.40
2018-12-18T12:09:08.127Z,11.15
2018-12-18T12:11:36.653Z,12.93
2018-12-18T12:14:05.315Z,15.23
2018-12-18T12:16:33.812Z,11.48
2018-12-18T12:19:03.094Z,8.58
2018-12-18T12:21:31.945Z,8.90
2018-12-18T12:24:00.378Z,8.85
2018-12-18T12:26:34.496Z,7.37
2018-12-18T12:29:03.578Z,11.22
2018-12-18T12:31:32.545Z,11.50
2018-12-18T12:34:01.448Z,10.80
2018-12-18T12:36:30.064Z,12.05
2018-12-18T12:38:59.118Z,8.35
2018-12-18T12:41:27.771Z,8.65
2018-12-18T12:43:56.901Z,11.78
2018-12-18T12:46:25.221Z,9.13
2018-12-18T12:48:55.432Z,8.63
2018-12-18T12:51:24.484Z,8.65
2018-12-18T12:53:53.100Z,7.28
2018-12-18T12:56:21.433Z,9.00
2018-12-18T12:58:49.857Z,5.80
2018-12-18T13:01:18.225Z,11.20
2018-12-18T13:03:46.681Z,9.28
2018-12-18T13:06:15.110Z,8.13
2018-12-18T13:08:43.445Z,11.45
2018-12-18T13:11:11.868Z,7.25
2018-12-18T13:13:40.331Z,6.90
2018-12-18T13:16:08.911Z,5.67
2018-12-18T13:18:37.683Z,10.80
2018-12-18T13:21:06.079Z,7.58
2018-12-18T13:23:34.498Z,8.75
2018-12-18T13:26:09.586Z,7.00
2018-12-18T13:28:37.967Z,12.00
2018-12-18T13:31:06.359Z,8.18
2018-12-18T13:33:34.950Z,7.20
2018-12-18T13:36:03.597Z,8.05
2018-12-18T13:38:32.214Z,12.55
2018-12-18T13:41:01.268Z,9.60
2018-12-18T13:43:29.676Z,8.20
2018-12-18T13:45:58.718Z,7.72
2018-12-18T13:48:27.074Z,5.97
2018-12-18T13:50:55.578Z,6.70
2018-12-18T13:53:24.516Z,6.65
2018-12-18T13:55:53.137Z,8.55
2018-12-18T13:58:21.521Z,7.20
2018-12-18T14:00:50.749Z,5.25
2018-12-18T14:03:19.329Z,7.78
2018-12-18T14:05:47.703Z,7.53
2018-12-18T14:08:16.132Z,8.33
2018-12-18T14:10:44.703Z,4.87
2018-12-18T14:13:13.133Z,7.70
2018-12-18T14:15:41.848Z,7.60
2018-12-18T14:18:10.705Z,8.30
2018-12-18T14:20:39.163Z,7.67
2018-12-18T14:23:07.712Z,6.45
2018-12-18T14:25:36.489Z,9.88
2018-12-18T14:28:05.228Z,9.90
2018-12-18T14:30:33.737Z,10.05
2018-12-18T14:33:02.211Z,10.88
2018-12-18T14:35:30.873Z,5.97
2018-12-18T14:37:59.355Z,5.62
2018-12-18T14:40:27.752Z,6.00
2018-12-18T14:42:56.164Z,7.60
2018-12-18T14:45:24.869Z,7.50
2018-12-18T14:47:53.891Z,5.67
2018-12-18T14:50:22.485Z,8.05
2018-12-18T14:52:51.554Z,3.50
2018-12-18T14:55:20.307Z,9.08
2018-12-18T14:57:49.784Z,4.12
2018-12-18T15:00:18.956Z,14.25
2018-12-18T15:02:47.652Z,8.75
2018-12-18T15:05:17.728Z,6.12
2018-12-18T15:07:46.723Z,7.83
2018-12-18T15:10:15.172Z,9.80
2018-12-18T15:12:50.409Z,11.53
2018-12-18T15:15:19.335Z,14.95
2018-12-18T15:17:47.968Z,8.48
2018-12-18T15:20:17.174Z,9.88
2018-12-18T15:22:45.894Z,9.08
2018-12-18T15:25:14.290Z,9.35
2018-12-18T15:27:43.164Z,8.05
2018-12-18T15:30:11.830Z,8.05
2018-12-18T15:32:40.549Z,5.85
2018-12-18T15:35:10.221Z,6.72
2018-12-18T15:37:40.091Z,6.55
2018-12-18T15:40:09.722Z,7.58
2018-12-18T15:42:38.590Z,4.37
2018-12-18T15:45:08.791Z,8.65
2018-12-18T15:47:37.247Z,8.45
2018-12-18T15:50:07.754Z,5.80
2018-12-18T15:52:36.557Z,4.65
2018-12-18T15:55:06.107Z,9.85
2018-12-18T15:57:34.591Z,4.92
2018-12-18T16:00:03.345Z,7.25
2018-12-18T16:02:31.822Z,5.08
2018-12-18T16:05:00.480Z,5.75
2018-12-18T16:07:28.882Z,8.33
2018-12-18T16:09:57.673Z,10.05
2018-12-18T16:12:26.052Z,8.10
2018-12-18T16:14:54.469Z,6.40
2018-12-18T16:17:22.929Z,6.97
2018-12-18T16:19:51.472Z,6.15
2018-12-18T16:22:19.836Z,7.03
2018-12-18T16:24:48.576Z,7.17
2018-12-18T16:27:18.782Z,5.08
2018-12-18T16:29:47.363Z,5.83
2018-12-18T16:32:16.029Z,8.20
2018-12-18T16:34:44.543Z,10.23
2018-12-18T16:37:13.121Z,6.97
2018-12-18T16:39:41.553Z,7.10
2018-12-18T16:42:10.058Z,7.72
2018-12-18T16:44:38.882Z,6.90
2018-12-18T16:47:07.572Z,6.28
2018-12-18T16:49:36.009Z,5.53
2018-12-18T16:52:04.744Z,9.55
2018-12-18T16:54:35.322Z,7.28
2018-12-18T16:57:04.370Z,6.75
2018-12-18T16:59:33.069Z,9.18
2018-12-18T17:02:02.031Z,8.98
2018-12-18T17:04:30.589Z,8.88
2018-12-18T17:06:59.791Z,9.45
2018-12-18T17:09:28.757Z,8.20
2018-12-18T17:11:57.600Z,5.08
2018-12-18T17:14:27.166Z,7.67
2018-12-18T17:16:55.802Z,5.58
2018-12-18T17:19:24.607Z,7.45
2018-12-18T17:21:53.140Z,5.40
2018-12-18T17:24:21.597Z,7.45
2018-12-18T17:26:50.573Z,5.10
2018-12-18T17:29:19.349Z,5.33
2018-12-18T17:31:47.855Z,7.62
2018-12-18T17:34:16.724Z,6.15
2018-12-18T17:36:45.065Z,7.00
2018-12-18T17:39:13.446Z,6.20
2018-12-18T17:41:42.234Z,6.15
2018-12-18T17:44:10.634Z,8.15
2018-12-18T17:46:39.056Z,8.13
2018-12-18T17:49:08.017Z,9.00
2018-12-18T17:51:36.445Z,9.60
2018-12-18T17:54:05.519Z,7.05
2018-12-18T17:56:33.901Z,8.28
2018-12-18T17:59:02.522Z,5.90
2018-12-18T18:01:31.000Z,7.35
2018-12-18T18:04:00.022Z,9.58
2018-12-18T18:06:28.449Z,6.70
2018-12-18T18:08:57.106Z,8.45
2018-12-18T18:11:25.591Z,6.53
2018-12-18T18:13:54.163Z,10.75
2018-12-18T18:16:22.685Z,7.45
2018-12-18T18:18:52.135Z,9.88
2018-12-18T18:21:20.819Z,11.95
2018-12-18T18:23:49.276Z,9.93
2018-12-18T18:26:17.740Z,10.78
2018-12-18T18:28:46.254Z,6.80
2018-12-18T18:31:14.778Z,9.03
2018-12-18T18:33:43.250Z,7.97
2018-12-18T18:36:12.333Z,6.17
2018-12-18T18:38:40.867Z,9.50
2018-12-18T18:41:09.865Z,8.80
2018-12-18T18:43:38.305Z,8.68
2018-12-18T18:46:07.281Z,8.20
2018-12-18T18:48:35.814Z,7.45
2018-12-18T18:51:04.262Z,9.83
2018-12-18T18:53:32.863Z,12.73
2018-12-18T18:56:02.877Z,12.73
2018-12-18T18:58:31.569Z,5.78
2018-12-18T19:01:00.193Z,10.10
2018-12-18T19:03:30.185Z,8.60
2018-12-18T19:05:58.625Z,7.25
2018-12-18T19:08:27.052Z,7.58
2018-12-18T19:11:01.813Z,7.97
2018-12-18T19:13:30.533Z,5.97
2018-12-18T19:15:59.258Z,8.95
2018-12-18T19:18:29.179Z,6.55
2018-12-18T19:20:57.598Z,7.67
2018-12-18T19:23:26.184Z,8.73
2018-12-18T19:25:54.568Z,6.75
2018-12-18T19:28:23.039Z,9.65
2018-12-18T19:30:51.708Z,6.00
2018-12-18T19:33:20.394Z,9.98
2018-12-18T19:35:49.453Z,7.00
2018-12-18T19:38:17.959Z,7.15
2018-12-18T19:40:46.641Z,7.67
2018-12-18T19:43:15.355Z,7.00
2018-12-18T19:45:44.672Z,9.33
2018-12-18T19:48:13.396Z,6.80
2018-12-18T19:50:41.851Z,6.37
2018-12-18T19:53:10.277Z,6.53
2018-12-18T19:55:39.315Z,5.60
2018-12-18T19:58:07.779Z,7.15
2018-12-18T20:00:36.440Z,6.80
2018-12-18T20:03:04.944Z,5.12
2018-12-18T20:05:33.360Z,6.12
2018-12-18T20:08:02.326Z,5.22
2018-12-18T20:10:31.279Z,6.70
2018-12-18T20:13:04.004Z,5.70
2018-12-18T20:15:32.786Z,6.83
2018-12-18T20:18:01.319Z,6.22
2018-12-18T20:20:29.731Z,6.62
2018-12-18T20:22:58.794Z,4.45
2018-12-18T20:25:27.421Z,8.03
2018-12-18T20:27:56.774Z,10.70
2018-12-18T20:30:25.768Z,4.62
2018-12-18T20:32:54.516Z,4.95
2018-12-18T20:35:23.502Z,5.90
2018-12-18T20:37:52.150Z,5.42
2018-12-18T20:40:20.883Z,4.97
2018-12-18T20:42:49.826Z,6.25
2018-12-18T20:45:18.875Z,5.40
2018-12-18T20:47:47.325Z,4.40
2018-12-18T20:50:15.739Z,4.85
2018-12-18T20:52:44.087Z,6.08
2018-12-18T20:55:12.658Z,4.70
2018-12-18T20:57:41.243Z,4.00
2018-12-18T21:00:12.578Z,7.78
2018-12-18T21:02:40.976Z,5.15
2018-12-18T21:05:09.948Z,4.12
2018-12-18T21:07:38.675Z,6.15
2018-12-18T21:10:08.774Z,4.08
2018-12-18T21:12:37.273Z,5.55
2018-12-18T21:15:06.740Z,4.17
2018-12-18T21:17:35.405Z,5.17
2018-12-18T21:20:04.684Z,4.00
2018-12-18T21:22:33.360Z,4.22
2018-12-18T21:25:02.132Z,5.70
2018-12-18T21:27:32.728Z,4.05
2018-12-18T21:30:01.317Z,5.87
2018-12-18T21:32:30.362Z,5.75
2018-12-18T21:34:58.808Z,5.65
2018-12-18T21:37:27.235Z,5.87
2018-12-18T21:39:55.646Z,5.47
2018-12-18T21:42:24.441Z,6.25
2018-12-18T21:44:53.439Z,6.37
2018-12-18T21:47:21.798Z,5.45
2018-12-18T21:49:50.198Z,5.42
2018-12-18T21:52:18.617Z,3.90
2018-12-18T21:54:47.554Z,6.15
2018-12-18T21:57:16.203Z,4.03
2018-12-18T21:59:45.060Z,7.15
2018-12-18T22:02:13.672Z,3.72
2018-12-18T22:04:42.104Z,3.85
2018-12-18T22:07:10.785Z,2.87
2018-12-18T22:09:39.221Z,4.85
2018-12-18T22:12:08.018Z,5.95
2018-12-18T22:14:36.410Z,4.97
2018-12-18T22:17:05.279Z,4.42
2018-12-18T22:19:34.074Z,5.20
2018-12-18T22:22:02.479Z,4.80
2018-12-18T22:24:31.986Z,2.42
2018-12-18T22:27:01.379Z,6.55
2018-12-18T22:29:29.927Z,3.10
2018-12-18T22:31:58.440Z,4.90
2018-12-18T22:34:27.100Z,8.43
2018-12-18T22:36:55.469Z,5.22
2018-12-18T22:39:24.340Z,4.62
2018-12-18T22:41:52.805Z,4.50
2018-12-18T22:44:21.246Z,4.08
2018-12-18T22:46:49.710Z,5.17
2018-12-18T22:49:18.200Z,3.95
2018-12-18T22:51:46.612Z,4.37
2018-12-18T22:54:15.205Z,4.15
2018-12-18T22:56:43.599Z,5.62
2018-12-18T22:59:12.789Z,4.25
2018-12-18T23:01:45.805Z,2.65
2018-12-18T23:04:15.357Z,3.55
2018-12-18T23:06:43.771Z,4.35
2018-12-18T23:09:16.575Z,5.65
2018-12-18T23:11:45.257Z,5.70
2018-12-18T23:14:13.641Z,4.10
2018-12-18T23:16:42.071Z,5.83
2018-12-18T23:19:11.581Z,7.53
2018-12-18T23:21:40.458Z,5.25
2018-12-18T23:24:08.838Z,5.05
2018-12-18T23:26:37.235Z,5.22
2018-12-18T23:29:05.754Z,5.92
2018-12-18T23:31:34.165Z,4.05
2018-12-18T23:34:02.567Z,4.87
2018-12-18T23:36:32.492Z,4.10
2018-12-18T23:39:01.029Z,4.00
2018-12-18T23:41:29.420Z,4.62
2018-12-18T23:43:57.886Z,6.28
2018-12-18T23:46:26.298Z,5.90
2018-12-18T23:48:54.975Z,4.37
2018-12-18T23:51:23.401Z,5.40
2018-12-18T23:53:51.854Z,2.67
2018-12-18T23:56:20.261Z,5.90
2018-12-18T23:58:48.921Z,3.27
